Time;durP1;ratioP1;P1;durP2;ratioP2;P2;SDS_P1;SDS_P2;PMS_P1;PMS_P2;Temp;Humidity;BMP_temperature;BMP_pressure;BME280_temperature;BME280_humidity;BME280_pressure;Samples;Min_cycle;Max_cycle;Signal;HPM_P1;HPM_P2
2023/11/17 00:02:15;;;;;;;6.82;4.53;;;1.80;99.90;;;1.07;100.00;100326.66;5010845;28;20100;-80
2023/11/17 00:04:41;;;;;;;8.52;5.18;;;1.80;99.90;;;1.04;100.00;100323.44;5011951;28;20113;-79
2023/11/17 00:07:06;;;;;;;6.53;4.57;;;1.80;99.90;;;1.00;100.00;100320.25;5019530;28;20043;-79
2023/11/17 00:09:32;;;;;;;9.40;5.30;;;1.80;99.90;;;1.00;100.00;100331.00;5015872;28;20037;-78
2023/11/17 00:11:58;;;;;;;8.40;4.55;;;1.70;99.90;;;0.91;100.00;100327.44;5011766;28;20041;-79
2023/11/17 00:14:24;;;;;;;9.43;4.78;;;1.60;99.90;;;0.83;100.00;100338.16;5022571;28;20366;-78
2023/11/17 00:16:50;;;;;;;8.18;4.70;;;1.50;99.90;;;0.70;100.00;100317.94;5017245;28;20046;-78
2023/11/17 00:19:15;;;;;;;8.05;4.68;;;1.50;99.90;;;0.71;100.00;100319.63;5011864;28;20041;-78
2023/11/17 00:21:41;;;;;;;10.07;5.13;;;1.50;99.90;;;0.84;100.00;100323.72;5011386;28;20057;-79
2023/11/17 00:24:09;;;;;;;9.10;5.05;;;1.60;99.90;;;0.93;100.00;100322.75;5012278;28;20061;-80
2023/11/17 00:26:35;;;;;;;9.68;5.47;;;1.70;99.90;;;0.97;100.00;100321.41;5025848;28;20026;-80
2023/11/17 00:29:01;;;;;;;10.25;5.63;;;1.70;99.90;;;0.98;100.00;100301.59;5026400;28;20056;-79
2023/11/17 00:31:29;;;;;;;11.02;5.93;;;1.80;99.90;;;1.10;100.00;100306.69;5024493;28;20513;-80
2023/11/17 00:33:55;;;;;;;9.05;5.18;;;1.90;99.90;;;1.16;100.00;100303.34;5025541;28;20042;-79
2023/11/17 00:36:21;;;;;;;13.07;5.65;;;1.90;99.90;;;1.19;100.00;100311.09;5025003;28;20400;-80
2023/11/17 00:38:49;;;;;;;9.80;5.90;;;2.00;99.90;;;1.16;100.00;100287.22;5023584;28;20037;-79
2023/11/17 00:41:16;;;;;;;9.18;5.78;;;2.00;99.90;;;1.21;100.00;100301.00;5024054;28;20057;-80
2023/11/17 00:43:41;;;;;;;9.48;5.60;;;1.90;99.90;;;1.15;100.00;100299.81;5024181;28;20045;-80
2023/11/17 00:46:08;;;;;;;9.35;5.55;;;1.90;99.90;;;1.10;100.00;100286.03;5040497;28;20030;-80
2023/11/17 00:48:37;;;;;;;9.27;6.03;;;1.90;99.90;;;1.07;100.00;100272.91;5024583;28;20042;-80
2023/11/17 00:51:03;;;;;;;11.65;5.93;;;1.90;99.90;;;1.08;100.00;100279.97;5023226;28;20026;-78
2023/11/17 00:53:29;;;;;;;11.38;6.00;;;1.90;99.90;;;1.08;100.00;100279.97;5023500;28;20060;-79
2023/11/17 00:55:57;;;;;;;14.48;6.63;;;1.90;99.90;;;1.00;100.00;100279.97;5024679;28;20046;-80
2023/11/17 00:58:23;;;;;;;9.10;5.82;;;1.80;99.90;;;0.91;100.00;100279.09;5032698;28;20083;-79
2023/11/17 01:00:53;;;;;;;10.80;6.18;;;1.70;99.90;;;0.90;100.00;100285.47;5022200;28;20037;-81
2023/11/17 01:03:19;;;;;;;10.27;6.30;;;1.60;99.90;;;0.84;100.00;100286.13;5025899;28;20040;-79
2023/11/17 01:05:48;;;;;;;12.57;6.30;;;1.60;99.90;;;0.79;100.00;100286.59;5028676;28;20063;-79
2023/11/17 01:08:14;;;;;;;11.50;6.63;;;1.50;99.90;;;0.79;100.00;100283.06;5023169;28;20494;-80
2023/11/17 01:10:40;;;;;;;10.95;6.18;;;1.50;99.90;;;0.68;100.00;100273.47;5025166;28;20041;-79
2023/11/17 01:13:07;;;;;;;12.15;7.05;;;1.60;99.90;;;0.76;100.00;100291.44;5025689;28;20076;-80
2023/11/17 01:15:35;;;;;;;12.02;6.68;;;1.50;99.90;;;0.70;100.00;100285.72;5027521;28;20033;-80
2023/11/17 01:18:06;;;;;;;10.23;5.68;;;1.50;99.90;;;0.69;100.00;100280.53;5044668;28;20113;-79
2023/11/17 01:20:34;;;;;;;12.43;6.60;;;1.40;99.90;;;0.66;100.00;100286.19;5020001;28;20417;-79
2023/11/17 01:23:04;;;;;;;11.38;6.53;;;1.40;99.90;;;0.61;100.00;100280.47;5029254;28;20126;-79
2023/11/17 01:25:34;;;;;;;12.93;6.25;;;1.40;99.90;;;0.57;100.00;100288.84;5020651;28;20033;-80
2023/11/17 01:28:01;;;;;;;10.90;6.18;;;1.30;99.90;;;0.52;100.00;100272.38;5015030;28;20038;-79
2023/11/17 01:30:30;;;;;;;14.13;6.30;;;1.30;99.90;;;0.53;100.00;100274.06;5017784;28;20030;-79
2023/11/17 01:32:57;;;;;;;11.20;6.38;;;1.30;99.90;;;0.55;100.00;100279.28;5020809;28;20036;-79
2023/11/17 01:35:23;;;;;;;13.02;6.68;;;1.30;99.90;;;0.51;100.00;100283.25;5027212;28;20449;-79
2023/11/17 01:37:49;;;;;;;11.80;6.72;;;1.30;99.90;;;0.45;100.00;100265.13;5019954;28;20072;-79
2023/11/17 01:40:15;;;;;;;16.02;6.63;;;1.30;99.90;;;0.45;100.00;100276.72;5023821;28;20129;-80
2023/11/17 01:42:42;;;;;;;14.80;6.78;;;1.30;99.90;;;0.52;100.00;100295.69;5029950;28;20532;-79
2023/11/17 01:45:08;;;;;;;12.63;6.63;;;1.30;99.90;;;0.50;100.00;100279.75;5019637;28;20500;-79
2023/11/17 01:47:40;;;;;;;11.52;6.53;;;1.30;99.90;;;0.50;100.00;100273.53;5018968;28;20497;-80
2023/11/17 01:50:09;;;;;;;13.77;7.03;;;1.30;99.90;;;0.62;100.00;100295.56;5019721;28;20038;-79
2023/11/17 01:52:37;;;;;;;17.90;7.65;;;1.40;99.90;;;0.55;100.00;100292.72;5014407;28;20042;-79
2023/11/17 01:55:07;;;;;;;12.10;7.25;;;1.30;99.90;;;0.60;100.00;100301.13;5019069;28;20042;-79
2023/11/17 01:57:38;;;;;;;11.95;6.75;;;1.30;99.90;;;0.54;100.00;100283.81;5012918;28;20099;-79
2023/11/17 02:00:14;;;;;;;14.52;7.03;;;1.40;99.90;;;0.51;100.00;100273.38;5017448;28;20099;-78
2023/11/17 02:02:44;;;;;;;15.65;7.53;;;1.40;99.90;;;0.65;100.00;100301.47;5023009;28;20038;-79
2023/11/17 02:05:19;;;;;;;12.57;7.32;;;1.40;99.90;;;0.62;100.00;100307.16;5029084;28;20060;-79
2023/11/17 02:08:12;;;;;;;11.02;6.40;;;1.40;99.90;;;0.64;100.00;100307.00;5022444;28;20363;-79
2023/11/17 02:11:20;;;;;;;15.48;7.53;;;1.40;99.90;;;0.60;100.00;100319.91;5029842;28;20041;-78
2023/11/17 02:14:18;;;;;;;15.13;7.03;;;1.30;99.90;;;0.61;100.00;100318.91;5040231;28;20049;-79
2023/11/17 02:16:47;;;;;;;19.55;7.60;;;1.30;99.90;;;0.61;100.00;100321.59;5018478;28;20045;-79
2023/11/17 02:19:35;;;;;;;16.20;7.80;;;1.30;99.90;;;0.66;100.00;100319.28;5013173;28;20038;-79
2023/11/17 02:22:08;;;;;;;14.02;7.93;;;1.40;99.90;;;0.78;100.00;100324.34;5014053;28;20071;-79
2023/11/17 02:24:44;;;;;;;14.00;8.10;;;1.50;99.90;;;0.83;100.00;100324.72;5013741;28;20034;-78
2023/11/17 02:27:33;;;;;;;14.50;7.85;;;1.60;99.90;;;0.83;100.00;100332.78;5020840;28;20030;-78
2023/11/17 02:30:03;;;;;;;14.93;7.87;;;1.60;99.90;;;0.77;100.00;100319.97;5012920;28;20046;-77
2023/11/17 02:32:31;;;;;;;14.63;8.23;;;1.60;99.90;;;0.90;100.00;100341.03;5026756;28;20298;-78
2023/11/17 02:34:58;;;;;;;12.05;7.82;;;1.70;99.90;;;0.84;100.00;100337.16;5021306;28;20038;-78
2023/11/17 02:37:24;;;;;;;20.52;9.20;;;1.70;99.90;;;0.83;100.00;100340.84;5012425;28;20038;-78
2023/11/17 02:39:55;;;;;;;16.95;9.18;;;1.80;99.90;;;0.91;100.00;100358.81;5015514;28;20561;-78
2023/11/17 02:42:26;;;;;;;16.63;8.27;;;1.80;99.90;;;1.06;100.00;100369.81;5020598;28;20112;-79
2023/11/17 02:44:52;;;;;;;16.55;9.10;;;1.90;99.90;;;1.10;100.00;100379.25;5020055;28;20099;-79
2023/11/17 02:47:27;;;;;;;14.48;9.00;;;1.90;99.90;;;1.10;100.00;100369.31;5016863;28;20091;-78
2023/11/17 02:50:01;;;;;;;14.88;9.10;;;2.00;99.90;;;1.22;100.00;100386.00;5017612;28;20092;-77
2023/11/17 02:52:47;;;;;;;16.50;9.27;;;2.10;99.90;;;1.25;100.00;100399.13;5016813;28;20450;-79
2023/11/17 02:55:16;;;;;;;14.57;8.15;;;2.30;99.90;;;1.29;100.00;100400.47;5023325;28;20038;-79
2023/11/17 02:57:45;;;;;;;14.10;8.75;;;2.30;99.90;;;1.37;100.00;100425.72;5034564;28;20045;-77
2023/11/17 03:00:12;;;;;;;14.32;8.43;;;2.40;99.90;;;1.44;100.00;100434.81;5012902;28;20521;-78
2023/11/17 03:02:40;;;;;;;14.10;8.73;;;2.40;99.90;;;1.53;100.00;100441.91;5012152;28;20038;-78
2023/11/17 03:05:13;;;;;;;17.33;8.45;;;2.40;99.90;;;1.52;100.00;100452.84;5012798;28;20225;-78
2023/11/17 03:07:39;;;;;;;17.60;8.75;;;2.50;99.90;;;1.43;100.00;100438.50;5017379;28;20501;-77
2023/11/17 03:10:07;;;;;;;16.40;8.70;;;2.60;99.90;;;1.60;100.00;100460.09;5012939;28;20034;-78
2023/11/17 03:12:33;;;;;;;13.57;8.13;;;2.60;99.90;;;1.71;100.00;100482.13;5012311;28;20041;-78
2023/11/17 03:14:59;;;;;;;12.57;7.60;;;2.60;99.90;;;1.66;100.00;100484.47;5012934;28;20378;-78
2023/11/17 03:17:25;;;;;;;13.10;7.80;;;2.70;99.90;;;1.71;100.00;100498.28;5018335;28;20090;-79
2023/11/17 03:19:52;;;;;;;14.68;8.15;;;2.70;99.90;;;1.68;100.00;100505.84;5017527;28;20068;-78
2023/11/17 03:22:17;;;;;;;13.20;8.20;;;2.80;99.90;;;1.78;100.00;100511.09;5020013;28;20457;-78
2023/11/17 03:24:43;;;;;;;15.25;8.52;;;2.80;99.90;;;1.85;100.00;100523.72;5023407;28;20128;-77
2023/11/17 03:27:11;;;;;;;13.70;7.60;;;2.80;99.90;;;1.90;100.00;100527.78;5018083;28;20077;-77
2023/11/17 03:29:37;;;;;;;13.75;7.78;;;2.80;99.90;;;1.86;100.00;100528.13;5023918;28;20036;-78
2023/11/17 03:32:07;;;;;;;12.93;7.72;;;2.80;99.90;;;1.94;100.00;100538.03;5027684;28;20030;-78
2023/11/17 03:34:33;;;;;;;14.10;7.72;;;2.90;99.90;;;1.95;100.00;100539.72;5014681;28;20088;-78
2023/11/17 03:37:04;;;;;;;11.80;7.72;;;2.90;99.90;;;1.96;100.00;100551.34;5015669;28;20025;-78
2023/11/17 03:39:41;;;;;;;12.00;7.63;;;2.90;99.90;;;1.90;100.00;100542.06;5017304;28;20498;-78
2023/11/17 03:42:11;;;;;;;12.75;7.93;;;2.90;99.90;;;1.88;100.00;100521.72;5010951;28;20030;-78
2023/11/17 03:44:38;;;;;;;15.13;7.38;;;3.00;99.90;;;2.05;100.00;100563.81;5031808;28;20026;-78
2023/11/17 03:47:06;;;;;;;12.85;7.55;;;3.00;99.90;;;2.14;100.00;100570.94;5011825;28;20136;-77
2023/11/17 03:49:33;;;;;;;12.15;7.65;;;3.00;99.90;;;2.06;100.00;100567.38;5025210;28;20061;-78
2023/11/17 03:51:59;;;;;;;11.27;7.07;;;3.00;99.90;;;2.05;100.00;100561.13;5015855;28;20061;-78
2023/11/17 03:54:26;;;;;;;12.10;7.60;;;3.00;99.90;;;1.94;100.00;100542.59;5032971;28;20057;-77
2023/11/17 03:56:54;;;;;;;14.13;7.93;;;3.10;99.90;;;2.13;100.00;100563.88;5015920;28;20065;-78
2023/11/17 03:59:24;;;;;;;14.50;7.30;;;3.10;99.90;;;2.21;100.00;100591.81;5010991;28;20493;-78
2023/11/17 04:01:51;;;;;;;12.95;7.43;;;3.20;99.90;;;2.14;100.00;100570.94;5016828;28;20052;-78
2023/11/17 04:04:18;;;;;;;12.23;7.80;;;3.20;99.90;;;2.32;100.00;100593.34;5018361;28;20025;-78
2023/11/17 04:06:50;;;;;;;13.93;7.55;;;3.20;99.90;;;2.33;100.00;100595.03;5013458;28;20037;-78
2023/11/17 04:09:20;;;;;;;13.45;7.60;;;3.30;99.90;;;2.29;100.00;100581.91;5016588;28;20087;-78
2023/11/17 04:11:47;;;;;;;12.75;8.52;;;3.30;99.90;;;2.28;100.00;100601.75;5015730;28;20046;-78
2023/11/17 04:14:13;;;;;;;12.07;7.67;;;3.30;99.90;;;2.41;100.00;100612.06;5012015;28;20132;-78
2023/11/17 04:16:40;;;;;;;13.90;7.85;;;3.30;99.90;;;2.36;100.00;100598.22;5017323;28;20132;-77
2023/11/17 04:19:08;;;;;;;12.75;8.60;;;3.40;99.90;;;2.48;100.00;100619.47;5018423;28;20486;-77
2023/11/17 04:21:35;;;;;;;15.35;8.05;;;3.40;99.90;;;2.46;100.00;100616.94;5015215;28;20592;-77
2023/11/17 04:24:02;;;;;;;15.93;8.38;;;3.40;99.90;;;2.40;100.00;100601.44;5016834;28;20030;-77
2023/11/17 04:26:31;;;;;;;15.13;8.98;;;3.40;99.90;;;2.48;100.00;100616.78;5012990;28;20065;-77
2023/11/17 04:28:57;;;;;;;16.00;8.32;;;3.40;99.90;;;2.41;100.00;100605.81;5016898;28;20033;-77
2023/11/17 04:31:23;;;;;;;15.73;8.80;;;3.40;99.90;;;2.47;100.00;100609.72;5028936;28;20416;-78
2023/11/17 04:33:49;;;;;;;14.88;9.20;;;3.50;99.90;;;2.47;100.00;100609.72;5026206;28;20046;-79
2023/11/17 04:36:17;;;;;;;17.23;9.27;;;3.50;99.90;;;2.43;100.00;100601.97;5023301;28;20041;-78
2023/11/17 04:38:43;;;;;;;12.82;8.02;;;3.50;99.90;;;2.54;100.00;100619.69;5028220;28;20045;-78
2023/11/17 04:41:13;;;;;;;13.50;8.85;;;3.50;99.90;;;2.60;100.00;100626.22;5018933;28;20509;-78
2023/11/17 04:43:38;;;;;;;15.85;9.23;;;3.50;99.90;;;2.57;100.00;100619.34;5015177;28;20116;-78
2023/11/17 04:46:06;;;;;;;15.98;8.50;;;3.50;99.90;;;2.64;100.00;100622.19;5022348;28;20121;-78
2023/11/17 04:48:32;;;;;;;14.02;8.88;;;3.60;99.90;;;2.62;100.00;100618.81;5021973;28;20034;-78
2023/11/17 04:50:59;;;;;;;16.63;8.15;;;3.60;99.90;;;2.61;100.00;100629.78;5015502;28;20046;-79
2023/11/17 04:53:24;;;;;;;15.48;8.20;;;3.60;99.90;;;2.62;100.00;100626.91;5023566;28;20447;-79
2023/11/17 04:55:52;;;;;;;15.93;8.98;;;3.60;99.90;;;2.64;100.00;100616.81;5014983;28;20038;-78
2023/11/17 04:58:18;;;;;;;12.25;8.35;;;3.60;99.90;;;2.68;100.00;100618.19;5021230;28;20034;-80
2023/11/17 05:00:46;;;;;;;13.93;8.63;;;3.70;99.90;;;2.70;100.00;100626.94;5015014;28;20046;-79
2023/11/17 05:03:11;;;;;;;15.23;8.50;;;3.70;99.90;;;2.70;100.00;100621.56;5015359;28;20120;-79
2023/11/17 05:05:37;;;;;;;14.57;8.82;;;3.70;99.90;;;2.63;100.00;100607.03;5018664;28;20497;-79
2023/11/17 05:08:03;;;;;;;13.07;9.00;;;3.70;99.90;;;2.71;100.00;100609.78;5018277;28;20418;-79
2023/11/17 05:10:29;;;;;;;13.75;8.65;;;3.80;99.90;;;2.80;100.00;100624.09;5018166;28;20033;-79
2023/11/17 05:12:55;;;;;;;14.02;8.32;;;3.80;99.90;;;2.82;100.00;100626.63;5021322;28;20046;-78
2023/11/17 05:15:22;;;;;;;13.35;8.15;;;3.80;99.90;;;2.82;100.00;100632.88;5014972;28;20041;-78
2023/11/17 05:17:48;;;;;;;14.27;8.30;;;3.80;99.90;;;2.77;100.00;100615.50;5017752;28;20045;-79
2023/11/17 05:20:24;;;;;;;15.65;8.73;;;3.80;99.90;;;2.90;100.00;100640.09;5020805;28;20041;-78
2023/11/17 05:22:54;;;;;;;14.07;8.93;;;3.90;99.90;;;2.86;100.00;100633.34;5014833;28;20033;-78
2023/11/17 05:25:20;;;;;;;13.75;8.18;;;3.90;99.90;;;2.90;100.00;100642.78;5019409;28;20573;-79
2023/11/17 05:27:48;;;;;;;13.20;7.65;;;3.90;99.90;;;2.96;100.00;100647.53;5020823;28;20512;-78
2023/11/17 05:30:15;;;;;;;15.52;8.43;;;3.90;99.90;;;2.96;100.00;100655.63;5020950;28;20034;-78
2023/11/17 05:32:41;;;;;;;11.10;7.85;;;4.00;99.90;;;2.96;100.00;100654.75;5019980;28;20044;-77
2023/11/17 05:35:08;;;;;;;12.38;7.70;;;4.00;99.90;;;2.98;100.00;100659.00;5015402;28;20030;-77
2023/11/17 05:37:34;;;;;;;14.35;7.68;;;4.00;99.90;;;3.02;100.00;100664.88;5016533;28;20030;-77
2023/11/17 05:40:01;;;;;;;11.95;8.20;;;4.00;99.90;;;3.02;100.00;100665.72;5026191;28;20083;-78
2023/11/17 05:42:29;;;;;;;12.13;7.65;;;4.00;99.90;;;3.02;100.00;100668.41;5016277;28;20034;-78
2023/11/17 05:44:55;;;;;;;13.25;7.65;;;4.00;99.90;;;3.02;100.00;100665.72;5020218;28;20033;-78
2023/11/17 05:47:21;;;;;;;11.30;7.63;;;4.00;99.90;;;3.00;100.00;100666.88;5020156;28;20041;-78
2023/11/17 05:49:47;;;;;;;13.18;8.10;;;4.00;99.90;;;3.01;100.00;100674.81;5014458;28;20038;-78
2023/11/17 05:52:16;;;;;;;11.90;7.82;;;4.00;99.90;;;3.02;100.00;100672.97;5019338;28;20125;-78
2023/11/17 05:54:46;;;;;;;11.23;6.65;;;4.00;99.90;;;3.00;100.00;100673.13;5020757;28;20088;-78
2023/11/17 05:57:22;;;;;;;11.23;7.68;;;4.00;99.90;;;2.96;100.00;100685.28;5012214;28;20037;-79
2023/11/17 05:59:53;;;;;;;12.32;7.78;;;4.00;99.90;;;2.88;100.00;100664.53;5017222;28;20049;-78
2023/11/17 06:02:19;;;;;;;16.30;7.65;;;4.00;99.90;;;3.01;100.00;100682.91;5017088;28;20251;-78
2023/11/17 06:04:45;;;;;;;11.27;7.50;;;4.00;99.90;;;2.94;100.00;100672.94;5021306;28;20041;-78
2023/11/17 06:07:11;;;;;;;11.32;7.95;;;4.00;99.90;;;2.91;100.00;100674.13;5023727;28;20366;-78
2023/11/17 06:09:37;;;;;;;13.05;7.80;;;3.90;99.90;;;2.62;100.00;100643.06;5028309;28;20141;-79
2023/11/17 06:12:05;;;;;;;14.52;8.40;;;3.90;99.90;;;2.89;100.00;100684.22;5030221;28;20029;-78
2023/11/17 06:14:31;;;;;;;13.68;8.13;;;3.80;99.90;;;2.91;100.00;100678.69;5024433;28;20403;-79
2023/11/17 06:16:57;;;;;;;12.70;7.93;;;3.80;99.90;;;2.88;100.00;100679.84;5028503;28;20033;-79
2023/11/17 06:19:24;;;;;;;14.02;7.82;;;3.80;99.90;;;2.88;100.00;100677.16;5032494;28;20111;-79
2023/11/17 06:21:51;;;;;;;14.48;8.32;;;3.80;99.90;;;2.66;100.00;100651.69;5030479;28;20055;-79
2023/11/17 06:24:18;;;;;;;14.68;9.05;;;3.80;99.90;;;2.69;100.00;100662.97;5023862;28;20061;-79
2023/11/17 06:26:45;;;;;;;11.52;8.30;;;3.80;99.90;;;2.80;100.00;100677.13;5020525;28;20041;-79
2023/11/17 06:29:15;;;;;;;13.93;7.97;;;3.80;99.90;;;2.86;100.00;100692.63;5020158;28;20060;-79
2023/11/17 06:31:45;;;;;;;11.73;8.30;;;3.80;99.90;;;2.80;100.00;100688.78;5022591;28;20072;-79
2023/11/17 06:34:11;;;;;;;12.93;8.85;;;3.80;99.90;;;2.83;100.00;100701.06;5026183;28;20038;-77
2023/11/17 06:36:40;;;;;;;15.40;8.43;;;3.80;99.90;;;2.86;100.00;100698.88;5027748;28;20034;-77
2023/11/17 06:39:18;;;;;;;13.43;8.50;;;3.80;99.90;;;2.86;100.00;100700.72;5023293;28;20401;-78
2023/11/17 06:41:49;;;;;;;15.57;8.23;;;3.80;99.90;;;2.89;100.00;100700.38;5019723;28;20120;-77
2023/11/17 06:44:20;;;;;;;17.25;8.52;;;3.80;99.90;;;2.91;100.00;100692.97;5027135;28;20033;-78
2023/11/17 06:46:52;;;;;;;12.77;7.93;;;3.80;99.90;;;2.94;100.00;100703.47;5017217;28;20030;-78
2023/11/17 06:49:20;;;;;;;16.48;8.57;;;3.90;99.90;;;2.97;100.00;100703.13;5022886;28;20057;-78
2023/11/17 06:51:50;;;;;;;12.32;7.90;;;3.90;99.90;;;3.01;100.00;100700.91;5031573;28;20033;-77
2023/11/17 06:54:18;;;;;;;11.05;7.65;;;3.90;99.90;;;3.07;100.00;100699.41;5014372;28;20034;-81
2023/11/17 06:56:48;;;;;;;14.65;7.65;;;4.00;99.90;;;3.09;100.00;100697.41;5016566;28;20115;-77
2023/11/17 06:59:19;;;;;;;12.80;7.72;;;4.00;99.90;;;3.10;100.00;100699.09;5012846;28;20192;-77
2023/11/17 07:01:47;;;;;;;12.98;7.47;;;4.00;99.90;;;3.10;100.00;100702.63;5012301;28;20042;-78
2023/11/17 07:04:13;;;;;;;;;;;4.10;99.90;;;3.15;100.00;100704.81;5013831;28;20034;-78
2023/11/17 07:06:43;;;;;;;11.25;7.30;;;4.10;99.90;;;3.20;100.00;100709.72;5015598;28;19943;-79
2023/11/17 07:09:16;;;;;;;11.27;6.75;;;4.10;99.90;;;3.23;100.00;100721.03;5018138;28;20038;-80
2023/11/17 07:11:54;;;;;;;11.75;6.82;;;4.20;99.90;;;3.30;100.00;100723.88;5013419;28;20034;-79
2023/11/17 07:14:21;;;;;;;11.75;6.50;;;4.20;99.90;;;3.25;100.00;100718.16;5025445;28;20065;-80
2023/11/17 07:16:54;;;;;;;10.32;6.47;;;4.30;99.90;;;3.39;100.00;100732.81;5012072;28;20089;-80
2023/11/17 07:19:20;;;;;;;10.10;6.18;;;4.30;99.90;;;3.38;100.00;100728.44;5012950;28;20040;-79
2023/11/17 07:21:50;;;;;;;12.63;6.20;;;4.40;99.90;;;3.47;100.00;100753.56;5012790;28;20397;-80
2023/11/17 07:24:18;;;;;;;11.05;6.35;;;4.40;99.90;;;3.56;100.00;100753.41;5012909;28;20088;-79
2023/11/17 07:26:47;;;;;;;9.13;5.88;;;4.40;99.90;;;3.53;100.00;100748.34;5025572;28;20076;-80
2023/11/17 07:29:15;;;;;;;9.55;6.10;;;4.40;99.90;;;3.54;100.00;100765.38;5019757;28;20466;-79
2023/11/17 07:31:46;;;;;;;10.25;5.75;;;4.50;99.90;;;3.61;100.00;100788.00;5021124;28;20033;-77
2023/11/17 07:34:15;;;;;;;8.45;5.30;;;4.50;99.90;;;3.73;100.00;100783.09;5022336;28;20042;-77
2023/11/17 07:36:45;;;;;;;11.32;6.40;;;4.50;99.90;;;3.70;100.00;100797.78;5011463;28;20086;-77
2023/11/17 07:39:18;;;;;;;13.85;5.90;;;4.50;99.90;;;3.70;100.00;100796.91;5011773;28;20038;-77
2023/11/17 07:41:45;;;;;;;11.38;5.97;;;4.60;99.90;;;3.72;100.00;100808.41;5017364;28;20038;-78
2023/11/17 07:44:19;;;;;;;8.93;5.68;;;4.60;99.90;;;3.78;100.00;100820.38;5019443;28;20049;-78
2023/11/17 07:46:46;;;;;;;9.00;5.38;;;4.70;99.90;;;3.78;100.00;100818.53;5017030;28;20425;-78
2023/11/17 07:49:12;;;;;;;10.55;5.65;;;4.70;99.90;;;3.73;100.00;100813.63;5017836;28;20116;-78
2023/11/17 07:51:38;;;;;;;9.07;5.10;;;4.70;99.90;;;3.80;100.00;100818.34;5015534;28;20117;-78
2023/11/17 07:54:05;;;;;;;10.55;5.40;;;4.70;99.90;;;3.88;100.00;100812.97;5018014;28;20045;-77
2023/11/17 07:56:30;;;;;;;8.57;5.20;;;4.70;99.90;;;3.89;100.00;100828.97;5016465;28;20038;-77
2023/11/17 07:58:59;;;;;;;10.70;5.68;;;4.80;99.90;;;3.95;100.00;100823.91;5012422;28;20191;-77
2023/11/17 08:01:25;;;;;;;10.90;5.60;;;4.80;99.90;;;3.99;100.00;100831.50;5017108;28;20481;-78
2023/11/17 08:03:51;;;;;;;12.05;5.47;;;4.80;99.90;;;4.00;100.00;100838.59;5015565;28;20044;-77
2023/11/17 08:06:19;;;;;;;9.77;5.25;;;4.90;99.90;;;4.13;100.00;100835.38;5012659;28;20030;-77
2023/11/17 08:08:45;;;;;;;10.27;4.90;;;4.90;99.90;;;4.18;100.00;100854.63;5020298;28;20042;-77
2023/11/17 08:11:12;;;;;;;8.68;4.93;;;5.00;99.90;;;4.20;100.00;100851.75;5011956;28;20030;-77
2023/11/17 08:13:37;;;;;;;8.35;4.68;;;5.00;99.90;;;4.24;100.00;100853.09;5021066;28;20485;-79
2023/11/17 08:16:06;;;;;;;10.45;4.70;;;5.00;99.90;;;4.24;100.00;100860.34;5016725;28;20029;-78
2023/11/17 08:18:33;;;;;;;8.18;4.82;;;5.10;99.90;;;4.30;100.00;100857.81;5014294;28;20056;-78
2023/11/17 08:21:03;;;;;;;8.50;4.40;;;5.10;99.90;;;4.37;100.00;100851.72;5020629;28;20457;-79
2023/11/17 08:23:28;;;;;;;9.40;4.30;;;5.20;99.90;;;4.41;100.00;100853.94;5020868;28;20026;-80
2023/11/17 08:25:55;;;;;;;6.82;4.65;;;5.20;99.90;;;4.52;100.00;100860.00;5013617;28;20494;-77
2023/11/17 08:28:22;;;;;;;7.03;4.05;;;5.30;99.90;;;4.57;100.00;100861.16;5014385;28;20112;-78
2023/11/17 08:30:48;;;;;;;9.18;4.72;;;5.40;99.90;;;4.70;100.00;100860.63;5009699;28;20038;-77
2023/11/17 08:33:14;;;;;;;8.93;4.70;;;5.40;99.90;;;4.68;100.00;100876.19;5020716;28;20128;-77
2023/11/17 08:35:41;;;;;;;7.38;4.50;;;5.50;99.90;;;4.77;100.00;100876.16;5009491;28;20034;-76
2023/11/17 08:38:07;;;;;;;6.13;4.27;;;5.60;99.90;;;4.69;100.00;100877.84;5013045;28;20036;-79
2023/11/17 08:40:33;;;;;;;8.30;4.40;;;5.60;99.90;;;4.86;100.00;100872.41;5022529;28;20025;-79
2023/11/17 08:43:00;;;;;;;5.90;4.00;;;5.70;99.90;;;5.06;100.00;100885.53;5023438;28;20382;-79
2023/11/17 08:45:26;;;;;;;9.13;4.20;;;5.90;99.90;;;5.03;100.00;100878.63;5018472;28;20055;-79
2023/11/17 08:47:55;;;;;;;8.45;4.32;;;5.90;99.90;;;4.99;100.00;100880.00;5006736;28;20507;-79
2023/11/17 08:50:21;;;;;;;8.35;4.40;;;6.00;99.90;;;5.17;100.00;100879.75;5006637;28;20521;-78
2023/11/17 08:52:47;;;;;;;7.70;3.67;;;6.00;99.90;;;5.00;100.00;100885.19;5015248;28;20046;-79
2023/11/17 08:55:15;;;;;;;6.85;3.90;;;6.00;99.90;;;5.02;100.00;100888.56;5023847;28;20026;-79
2023/11/17 08:57:44;;;;;;;6.85;3.88;;;6.00;99.90;;;5.07;100.00;100887.22;5015702;28;20038;-78
2023/11/17 09:00:44;;;;;;;7.28;3.85;;;6.00;99.90;;;5.09;100.00;100871.69;5015406;28;20539;-79
2023/11/17 09:03:11;;;;;;;7.97;3.58;;;6.10;99.90;;;4.68;100.00;100834.81;5022637;28;20494;-79
2023/11/17 09:05:40;;;;;;;9.02;4.07;;;6.00;99.90;;;5.00;100.00;100862.75;5018075;28;20034;-78
2023/11/17 09:08:07;;;;;;;7.55;3.85;;;6.10;99.90;;;5.27;100.00;100896.59;5011613;28;20044;-78
2023/11/17 09:10:33;;;;;;;10.13;3.85;;;6.10;99.90;;;5.28;100.00;100892.88;5011261;28;20053;-78
2023/11/17 09:13:00;;;;;;;7.10;3.45;;;6.20;99.90;;;5.27;100.00;100904.72;5011820;28;20059;-78
2023/11/17 09:15:27;;;;;;;5.40;2.92;;;6.20;99.90;;;5.06;100.00;100912.59;5018289;28;20048;-78
2023/11/17 09:17:54;;;;;;;8.43;3.87;;;6.20;99.90;;;5.16;100.00;100914.06;5012024;28;20049;-78
2023/11/17 09:20:22;;;;;;;6.97;3.50;;;6.20;99.90;;;5.27;100.00;100909.28;5019344;28;20450;-79
2023/11/17 09:22:51;;;;;;;5.45;3.08;;;6.20;99.90;;;5.25;100.00;100919.44;5017189;28;20060;-79
2023/11/17 09:25:18;;;;;;;9.63;3.47;;;6.20;99.90;;;5.06;100.00;100901.78;5032930;28;20104;-79
2023/11/17 09:27:56;;;;;;;7.40;3.42;;;6.20;99.90;;;5.38;100.00;100919.72;5032124;28;20060;-77
2023/11/17 09:30:24;;;;;;;8.43;3.35;;;6.20;99.90;;;5.47;100.00;100915.13;5030107;28;20030;-77
2023/11/17 09:32:55;;;;;;;6.28;3.40;;;6.30;99.90;;;5.47;100.00;100920.53;5029112;28;20091;-78
2023/11/17 09:35:22;;;;;;;9.60;3.28;;;6.40;99.90;;;5.53;100.00;100925.22;5032892;28;20033;-77
2023/11/17 09:37:53;;;;;;;5.95;3.30;;;6.40;99.90;;;5.41;100.00;100924.78;5027953;28;20112;-76
2023/11/17 09:40:24;;;;;;;8.55;3.83;;;6.40;99.90;;;5.65;100.00;100925.69;5025332;28;20393;-79
2023/11/17 09:42:55;;;;;;;6.95;3.65;;;6.50;99.90;;;5.82;100.00;100923.72;5029198;28;20086;-77
2023/11/17 09:45:24;;;;;;;4.72;2.90;;;6.60;99.90;;;5.70;100.00;100927.88;5025288;28;20037;-78
2023/11/17 09:47:53;;;;;;;7.28;3.15;;;6.60;99.90;;;5.86;100.00;100927.78;5027401;28;20033;-78
2023/11/17 09:50:27;;;;;;;7.60;2.88;;;6.70;99.90;;;5.64;100.00;100926.69;5027233;28;20041;-78
2023/11/17 09:52:55;;;;;;;8.73;3.30;;;6.70;99.90;;;5.69;100.00;100920.75;5019047;28;20040;-77
2023/11/17 09:55:22;;;;;;;7.78;3.35;;;6.60;99.90;;;5.73;100.00;100919.38;5038894;28;20026;-78
2023/11/17 09:57:55;;;;;;;7.57;3.13;;;6.70;99.90;;;5.89;100.00;100930.13;5020524;28;20140;-78
2023/11/17 10:00:27;;;;;;;7.97;3.10;;;6.70;99.90;;;6.10;100.00;100920.53;5026290;28;20045;-78
2023/11/17 10:03:02;;;;;;;5.38;3.00;;;6.90;99.90;;;6.02;100.00;100926.00;5016614;28;20041;-79
2023/11/17 10:05:31;;;;;;;5.72;2.78;;;7.00;99.90;;;6.03;100.00;100912.28;5020064;28;20112;-82
2023/11/17 10:08:13;;;;;;;8.23;3.20;;;7.10;99.90;;;5.70;100.00;100928.72;5025327;28;20038;-81
2023/11/17 10:10:44;;;;;;;5.70;2.85;;;7.00;99.90;;;5.84;100.00;100927.13;5035401;28;20068;-81
2023/11/17 10:13:16;;;;;;;6.85;2.60;;;7.00;99.90;;;5.99;100.00;100926.34;5023181;28;20477;-81
2023/11/17 10:15:50;;;;;;;6.10;2.80;;;7.00;99.90;;;5.89;100.00;100943.66;5019166;28;20037;-80
2023/11/17 10:18:19;;;;;;;7.95;3.30;;;7.00;99.90;;;5.95;100.00;100933.97;5025627;28;20485;-78
2023/11/17 10:20:47;;;;;;;6.28;3.05;;;7.00;99.90;;;6.03;100.00;100935.81;5015909;28;20124;-79
2023/11/17 10:23:14;;;;;;;8.63;3.08;;;7.00;99.90;;;5.78;100.00;100932.41;5026814;28;20064;-77